createdAt,value
2022-12-18T00:01:22.066Z,8.30
2022-12-18T00:03:49.743Z,8.30
2022-12-18T00:06:17.587Z,8.40
2022-12-18T00:08:45.821Z,8.50
2022-12-18T00:11:18.429Z,8.60
2022-12-18T00:13:46.143Z,8.60
2022-12-18T00:16:15.363Z,8.50
2022-12-18T00:18:42.905Z,8.10
2022-12-18T00:21:11.850Z,8.10
2022-12-18T00:23:40.517Z,8.10
2022-12-18T00:26:18.805Z,8.40
2022-12-18T00:28:46.744Z,8.50
2022-12-18T00:31:17.157Z,8.70
2022-12-18T00:33:44.039Z,8.70
2022-12-18T00:36:13.905Z,8.70
2022-12-18T00:38:41.549Z,8.80
2022-12-18T00:41:11.757Z,8.80
2022-12-18T00:43:40.032Z,8.90
2022-12-18T00:46:07.474Z,8.80
2022-12-18T00:48:34.328Z,8.80
2022-12-18T00:51:01.228Z,8.90
2022-12-18T00:53:28.125Z,8.90
2022-12-18T00:55:56.643Z,8.70
2022-12-18T00:58:23.502Z,8.40
2022-12-18T01:00:51.086Z,8.30
2022-12-18T01:03:17.954Z,8.40
2022-12-18T01:05:44.845Z,8.50
2022-12-18T01:08:12.238Z,8.60
2022-12-18T01:10:42.433Z,8.50
2022-12-18T01:13:09.702Z,8.50
2022-12-18T01:15:36.994Z,8.40
2022-12-18T01:18:06.839Z,8.40
2022-12-18T01:20:33.939Z,8.50
2022-12-18T01:23:00.750Z,8.50
2022-12-18T01:25:27.688Z,8.40
2022-12-18T01:27:54.561Z,8.40
2022-12-18T01:30:21.534Z,8.70
2022-12-18T01:32:51.330Z,8.80
2022-12-18T01:35:18.196Z,8.70
2022-12-18T01:37:45.005Z,8.60
2022-12-18T01:40:12.199Z,8.70
2022-12-18T01:42:40.028Z,8.80
2022-12-18T01:45:24.443Z,8.70
2022-12-18T01:47:54.797Z,8.60
2022-12-18T01:50:36.938Z,8.50
2022-12-18T01:53:08.420Z,8.70
2022-12-18T01:55:47.645Z,8.80
2022-12-18T01:58:15.077Z,8.80
2022-12-18T02:00:42.360Z,8.90
2022-12-18T02:03:09.427Z,8.90
2022-12-18T02:05:59.518Z,8.90
2022-12-18T02:09:12.674Z,8.90
2022-12-18T02:11:45.542Z,9.00
2022-12-18T02:14:15.777Z,8.90
2022-12-18T02:16:57.612Z,9.00
2022-12-18T02:19:45.746Z,8.90
2022-12-18T02:22:47.527Z,8.90
2022-12-18T02:25:29.321Z,8.80
2022-12-18T02:28:00.382Z,8.90
2022-12-18T02:30:35.040Z,8.80
2022-12-18T02:33:04.934Z,8.90
2022-12-18T02:35:34.581Z,8.70
2022-12-18T02:38:04.164Z,8.70
2022-12-18T02:40:34.648Z,8.70
2022-12-18T02:43:12.881Z,8.90
2022-12-18T02:45:56.025Z,8.80
2022-12-18T02:48:31.417Z,8.90
2022-12-18T02:51:11.957Z,8.90
2022-12-18T02:53:46.037Z,8.90
2022-12-18T02:56:28.754Z,9.00
2022-12-18T02:59:01.331Z,9.10
2022-12-18T03:02:02.141Z,9.20
2022-12-18T03:04:40.722Z,9.10
2022-12-18T03:07:16.558Z,9.20
2022-12-18T03:09:48.819Z,9.30
2022-12-18T03:12:25.983Z,9.30
2022-12-18T03:15:00.325Z,9.30
2022-12-18T03:17:30.606Z,9.40
2022-12-18T03:20:03.151Z,9.40
2022-12-18T03:22:34.352Z,9.40
2022-12-18T03:25:05.338Z,9.40
2022-12-18T03:27:34.435Z,9.60
2022-12-18T03:30:12.423Z,9.60
2022-12-18T03:33:01.598Z,9.60
2022-12-18T03:35:38.413Z,9.60
2022-12-18T03:38:06.216Z,9.50
2022-12-18T03:40:50.042Z,9.50
2022-12-18T03:43:36.059Z,9.50
2022-12-18T03:46:16.444Z,9.40
2022-12-18T03:48:54.800Z,9.50
2022-12-18T03:51:41.909Z,9.50
2022-12-18T03:54:10.075Z,9.30
2022-12-18T03:56:48.326Z,9.40
2022-12-18T03:59:17.060Z,9.40
2022-12-18T04:01:48.640Z,9.30
2022-12-18T04:04:17.558Z,9.30
2022-12-18T04:06:47.856Z,9.30
2022-12-18T04:09:15.729Z,9.20
2022-12-18T04:11:47.764Z,9.30
2022-12-18T04:14:18.255Z,9.30
2022-12-18T04:16:46.598Z,9.20
2022-12-18T04:19:16.521Z,9.30
2022-12-18T04:21:44.997Z,9.40
2022-12-18T04:24:14.139Z,9.30
2022-12-18T04:26:49.240Z,9.30
2022-12-18T04:29:24.154Z,9.30
2022-12-18T04:31:51.309Z,9.30
2022-12-18T04:34:18.182Z,9.30
2022-12-18T04:36:50.158Z,9.30
2022-12-18T04:39:19.082Z,9.30
2022-12-18T04:41:46.814Z,9.30
2022-12-18T04:44:14.439Z,9.30
2022-12-18T04:46:41.435Z,9.20
2022-12-18T04:49:08.523Z,9.30
2022-12-18T04:51:35.374Z,9.30
2022-12-18T04:54:02.386Z,9.30
2022-12-18T04:56:29.156Z,9.30
2022-12-18T04:58:55.949Z,9.30
2022-12-18T05:01:23.033Z,9.30
2022-12-18T05:03:50.120Z,9.30
2022-12-18T05:06:16.981Z,9.30
2022-12-18T05:08:43.809Z,9.40
2022-12-18T05:11:13.238Z,9.30
2022-12-18T05:13:40.371Z,9.30
2022-12-18T05:16:08.060Z,9.30
2022-12-18T05:18:35.561Z,9.30
2022-12-18T05:21:02.531Z,9.20
2022-12-18T05:23:29.770Z,9.20
2022-12-18T05:26:02.130Z,9.20
2022-12-18T05:28:30.621Z,9.20
2022-12-18T05:30:59.850Z,9.00
2022-12-18T05:33:28.405Z,9.00
2022-12-18T05:35:57.692Z,9.10
2022-12-18T05:38:25.790Z,9.10
2022-12-18T05:40:53.794Z,9.20
2022-12-18T05:43:24.601Z,9.20
2022-12-18T05:45:52.239Z,9.20
2022-12-18T05:48:19.257Z,9.20
2022-12-18T05:50:47.739Z,9.10
2022-12-18T05:53:17.046Z,9.10
2022-12-18T05:55:44.869Z,9.20
2022-12-18T05:58:13.238Z,9.20
2022-12-18T06:00:43.697Z,9.10
2022-12-18T06:03:12.692Z,9.20
2022-12-18T06:05:41.935Z,9.20
2022-12-18T06:08:09.393Z,9.20
2022-12-18T06:10:36.545Z,9.10
2022-12-18T06:13:04.030Z,9.00
2022-12-18T06:15:31.001Z,9.00
2022-12-18T06:17:57.823Z,9.10
2022-12-18T06:20:29.096Z,9.10
2022-12-18T20:21:57.536Z,9.70
2022-12-18T20:24:24.471Z,9.10
2022-12-18T20:26:51.612Z,8.60
2022-12-18T20:29:18.506Z,8.00
2022-12-18T20:31:45.427Z,7.70
2022-12-18T20:34:12.330Z,7.70
2022-12-18T20:36:39.896Z,7.40
2022-12-18T20:39:08.945Z,7.50
2022-12-18T20:41:37.965Z,7.60
2022-12-18T20:44:20.074Z,7.70
2022-12-18T20:46:50.577Z,7.60
2022-12-18T20:49:17.430Z,7.80
2022-12-18T20:51:44.343Z,7.70
2022-12-18T20:54:12.068Z,7.70
2022-12-18T20:56:39.046Z,7.80
2022-12-18T20:59:05.897Z,7.60
2022-12-18T21:01:32.844Z,7.50
2022-12-18T21:04:00.677Z,7.40
2022-12-18T21:06:27.620Z,7.20
2022-12-18T21:08:54.477Z,7.40
2022-12-18T21:11:39.796Z,7.30
2022-12-18T21:14:11.839Z,7.20
2022-12-18T21:16:40.171Z,7.40
2022-12-18T21:19:07.286Z,7.50
2022-12-18T21:21:36.529Z,7.30
2022-12-18T21:24:06.894Z,7.20
2022-12-18T21:26:33.913Z,7.20
2022-12-18T21:29:06.281Z,7.50
2022-12-18T21:31:35.481Z,7.50
2022-12-18T21:34:04.118Z,7.40
2022-12-18T21:36:32.058Z,7.00
2022-12-18T21:38:59.978Z,6.90
2022-12-18T21:41:46.918Z,6.90
2022-12-18T21:44:15.934Z,6.90
2022-12-18T21:46:52.953Z,6.90
2022-12-18T21:49:23.349Z,7.10
2022-12-18T21:51:55.327Z,7.00
2022-12-18T21:54:23.081Z,6.80
2022-12-18T21:56:59.469Z,6.80
